Terminal Aerodrome Forecast
Issued by NWS

Home | Current Version | Previous Version | Text Only | Print | Product List | Glossary On
Versions: 1 2 3 4 5 6 7 8 9 10 11 12 13 14 15
621
FTUS41 KBTV 191142
TAFSLK
TAF
KSLK 191142Z 1912/2012 00000KT 1/4SM FG OVC002
     FM191300 00000KT 6SM BR BKN080
     FM191500 00000KT P6SM SCT080
     FM200500 00000KT 3SM BR SCT001=

USA.gov is the U.S. government's official web portal to all federal, state and local government web resources and services.